sensor_id;sensor_type;location;lat;lon;timestamp;pressure;altitude;pressure_sealevel;temperature;humidity
77351;BME280;66420;50.246;14.320;2024-01-10T00:01:10;101230.84;;;-11.01;88.05
77351;BME280;66420;50.246;14.320;2024-01-10T00:03:56;101227.56;;;-10.94;88.77
77351;BME280;66420;50.246;14.320;2024-01-10T00:06:40;101233.22;;;-10.98;88.17
77351;BME280;66420;50.246;14.320;2024-01-10T00:09:27;101232.16;;;-10.96;88.91
77351;BME280;66420;50.246;14.320;2024-01-10T00:12:12;101222.53;;;-10.97;87.60
77351;BME280;66420;50.246;14.320;2024-01-10T00:14:56;101218.47;;;-11.01;88.31
77351;BME280;66420;50.246;14.320;2024-01-10T00:17:41;101219.69;;;-11.05;88.15
77351;BME280;66420;50.246;14.320;2024-01-10T00:20:26;101213.88;;;-10.99;88.86
77351;BME280;66420;50.246;14.320;2024-01-10T00:23:11;101206.09;;;-11.00;88.51
77351;BME280;66420;50.246;14.320;2024-01-10T00:25:56;101209.44;;;-10.98;87.98
77351;BME280;66420;50.246;14.320;2024-01-10T00:28:41;101215.00;;;-11.01;88.72
77351;BME280;66420;50.246;14.320;2024-01-10T00:31:26;101213.44;;;-11.04;88.53
77351;BME280;66420;50.246;14.320;2024-01-10T00:34:11;101210.38;;;-11.09;88.34
77351;BME280;66420;50.246;14.320;2024-01-10T00:36:56;101209.22;;;-11.27;89.05
77351;BME280;66420;50.246;14.320;2024-01-10T00:39:41;101199.03;;;-11.32;89.15
77351;BME280;66420;50.246;14.320;2024-01-10T00:42:26;101203.63;;;-11.34;90.19
77351;BME280;66420;50.246;14.320;2024-01-10T00:45:11;101199.19;;;-11.33;89.12
77351;BME280;66420;50.246;14.320;2024-01-10T00:47:57;101201.13;;;-11.35;89.48
77351;BME280;66420;50.246;14.320;2024-01-10T00:50:42;101203.38;;;-11.10;88.86
77351;BME280;66420;50.246;14.320;2024-01-10T00:53:29;101205.75;;;-11.07;88.54
77351;BME280;66420;50.246;14.320;2024-01-10T00:56:14;101203.31;;;-11.19;88.37
77351;BME280;66420;50.246;14.320;2024-01-10T00:58:58;101209.00;;;-11.24;89.00
77351;BME280;66420;50.246;14.320;2024-01-10T01:01:43;101208.47;;;-11.18;89.24
77351;BME280;66420;50.246;14.320;2024-01-10T01:04:28;101208.28;;;-11.26;88.96
77351;BME280;66420;50.246;14.320;2024-01-10T01:07:12;101202.28;;;-11.28;89.25
77351;BME280;66420;50.246;14.320;2024-01-10T01:09:57;101210.69;;;-11.23;88.82
77351;BME280;66420;50.246;14.320;2024-01-10T01:12:42;101208.09;;;-11.34;89.07
77351;BME280;66420;50.246;14.320;2024-01-10T01:15:27;101210.47;;;-11.31;89.15
77351;BME280;66420;50.246;14.320;2024-01-10T01:18:12;101219.09;;;-11.29;89.22
77351;BME280;66420;50.246;14.320;2024-01-10T01:20:58;101212.88;;;-11.28;88.72
77351;BME280;66420;50.246;14.320;2024-01-10T01:23:42;101211.09;;;-11.18;88.86
77351;BME280;66420;50.246;14.320;2024-01-10T01:26:27;101220.66;;;-11.27;89.77
77351;BME280;66420;50.246;14.320;2024-01-10T01:29:12;101212.09;;;-11.19;88.86
77351;BME280;66420;50.246;14.320;2024-01-10T01:31:57;101207.44;;;-11.27;89.87
77351;BME280;66420;50.246;14.320;2024-01-10T01:34:42;101208.09;;;-11.34;89.67
77351;BME280;66420;50.246;14.320;2024-01-10T01:37:27;101203.75;;;-11.35;89.85
77351;BME280;66420;50.246;14.320;2024-01-10T01:40:13;101210.00;;;-11.36;89.22
77351;BME280;66420;50.246;14.320;2024-01-10T01:42:58;101211.84;;;-11.37;89.47
77351;BME280;66420;50.246;14.320;2024-01-10T01:45:43;101208.84;;;-11.43;89.62
77351;BME280;66420;50.246;14.320;2024-01-10T01:48:27;101211.44;;;-11.32;89.87
77351;BME280;66420;50.246;14.320;2024-01-10T01:51:14;101204.47;;;-11.33;89.21
77351;BME280;66420;50.246;14.320;2024-01-10T01:53:59;101208.41;;;-11.28;89.22
77351;BME280;66420;50.246;14.320;2024-01-10T01:56:44;101202.81;;;-11.34;89.98
77351;BME280;66420;50.246;14.320;2024-01-10T01:59:29;101204.72;;;-11.36;89.76
77351;BME280;66420;50.246;14.320;2024-01-10T02:02:16;101201.69;;;-11.32;89.32
77351;BME280;66420;50.246;14.320;2024-01-10T02:05:01;101195.59;;;-11.32;89.25
77351;BME280;66420;50.246;14.320;2024-01-10T02:07:46;101194.59;;;-11.31;90.43
77351;BME280;66420;50.246;14.320;2024-01-10T02:10:31;101195.13;;;-11.37;90.34
77351;BME280;66420;50.246;14.320;2024-01-10T02:13:16;101195.59;;;-11.32;90.34
77351;BME280;66420;50.246;14.320;2024-01-10T02:16:01;101196.28;;;-11.30;89.32
77351;BME280;66420;50.246;14.320;2024-01-10T02:18:48;101194.22;;;-11.27;89.96
77351;BME280;66420;50.246;14.320;2024-01-10T02:21:33;101192.59;;;-11.18;89.17
77351;BME280;66420;50.246;14.320;2024-01-10T02:24:18;101189.28;;;-11.20;89.34
77351;BME280;66420;50.246;14.320;2024-01-10T02:27:03;101190.69;;;-11.16;88.49
77351;BME280;66420;50.246;14.320;2024-01-10T02:29:48;101187.16;;;-11.05;88.65
77351;BME280;66420;50.246;14.320;2024-01-10T02:32:33;101191.72;;;-11.07;88.82
77351;BME280;66420;50.246;14.320;2024-01-10T02:35:18;101188.50;;;-11.11;88.16
77351;BME280;66420;50.246;14.320;2024-01-10T02:38:03;101183.47;;;-11.14;88.85
77351;BME280;66420;50.246;14.320;2024-01-10T02:40:48;101186.81;;;-11.12;89.17
77351;BME280;66420;50.246;14.320;2024-01-10T02:43:33;101185.22;;;-11.24;89.19
77351;BME280;66420;50.246;14.320;2024-01-10T02:46:18;101180.88;;;-11.25;89.31
77351;BME280;66420;50.246;14.320;2024-01-10T02:49:04;101176.72;;;-11.28;89.21
77351;BME280;66420;50.246;14.320;2024-01-10T02:51:48;101181.16;;;-11.28;90.16
77351;BME280;66420;50.246;14.320;2024-01-10T02:54:33;101171.66;;;-11.31;89.78
77351;BME280;66420;50.246;14.320;2024-01-10T02:57:17;101185.84;;;-11.32;89.00
77351;BME280;66420;50.246;14.320;2024-01-10T03:00:02;101175.88;;;-11.28;89.16
77351;BME280;66420;50.246;14.320;2024-01-10T03:02:49;101175.59;;;-11.25;88.79
77351;BME280;66420;50.246;14.320;2024-01-10T03:05:33;101171.19;;;-10.94;88.57
77351;BME280;66420;50.246;14.320;2024-01-10T03:08:18;101169.59;;;-11.06;87.74
77351;BME280;66420;50.246;14.320;2024-01-10T03:11:03;101174.56;;;-11.13;88.02
77351;BME280;66420;50.246;14.320;2024-01-10T03:13:53;101160.88;;;-11.18;88.33
77351;BME280;66420;50.246;14.320;2024-01-10T03:16:44;101162.34;;;-11.14;88.69
77351;BME280;66420;50.246;14.320;2024-01-10T03:19:30;101161.56;;;-11.05;88.72
77351;BME280;66420;50.246;14.320;2024-01-10T03:22:16;101170.50;;;-11.17;88.41
77351;BME280;66420;50.246;14.320;2024-01-10T03:25:00;101163.75;;;-11.10;88.56
77351;BME280;66420;50.246;14.320;2024-01-10T03:27:46;101161.28;;;-11.23;88.40
77351;BME280;66420;50.246;14.320;2024-01-10T03:30:31;101171.09;;;-11.34;88.53
77351;BME280;66420;50.246;14.320;2024-01-10T03:33:15;101172.19;;;-11.37;88.80
77351;BME280;66420;50.246;14.320;2024-01-10T03:35:59;101172.91;;;-11.35;88.36
77351;BME280;66420;50.246;14.320;2024-01-10T03:38:44;101166.59;;;-11.43;89.21
77351;BME280;66420;50.246;14.320;2024-01-10T03:41:29;101166.31;;;-11.40;89.03
77351;BME280;66420;50.246;14.320;2024-01-10T03:44:14;101164.13;;;-11.35;88.80
77351;BME280;66420;50.246;14.320;2024-01-10T03:46:58;101161.47;;;-11.35;89.24
77351;BME280;66420;50.246;14.320;2024-01-10T03:49:43;101156.59;;;-11.40;89.11
77351;BME280;66420;50.246;14.320;2024-01-10T03:52:27;101155.06;;;-11.42;88.54
77351;BME280;66420;50.246;14.320;2024-01-10T03:55:12;101154.97;;;-11.31;87.90
77351;BME280;66420;50.246;14.320;2024-01-10T03:57:57;101150.16;;;-11.47;88.82
77351;BME280;66420;50.246;14.320;2024-01-10T04:00:42;101140.94;;;-11.52;89.23
77351;BME280;66420;50.246;14.320;2024-01-10T04:03:27;101137.41;;;-11.42;88.19
77351;BME280;66420;50.246;14.320;2024-01-10T04:06:12;101137.34;;;-11.51;89.13
77351;BME280;66420;50.246;14.320;2024-01-10T04:08:56;101132.97;;;-11.41;88.15
77351;BME280;66420;50.246;14.320;2024-01-10T04:11:40;101125.22;;;-11.33;87.88
77351;BME280;66420;50.246;14.320;2024-01-10T04:14:26;101130.50;;;-11.33;87.86
77351;BME280;66420;50.246;14.320;2024-01-10T04:17:11;101128.56;;;-11.31;86.75
77351;BME280;66420;50.246;14.320;2024-01-10T04:19:56;101134.81;;;-11.32;86.49
77351;BME280;66420;50.246;14.320;2024-01-10T04:22:41;101130.75;;;-11.36;86.64
77351;BME280;66420;50.246;14.320;2024-01-10T04:25:26;101131.59;;;-11.36;87.38
77351;BME280;66420;50.246;14.320;2024-01-10T04:28:11;101136.50;;;-11.52;87.42
77351;BME280;66420;50.246;14.320;2024-01-10T04:30:56;101142.34;;;-11.48;87.06
77351;BME280;66420;50.246;14.320;2024-01-10T04:33:41;101139.97;;;-11.51;87.46
77351;BME280;66420;50.246;14.320;2024-01-10T04:36:26;101136.88;;;-11.56;89.14
77351;BME280;66420;50.246;14.320;2024-01-10T04:39:11;101142.16;;;-11.56;88.49
77351;BME280;66420;50.246;14.320;2024-01-10T04:41:56;101134.94;;;-11.54;89.66
77351;BME280;66420;50.246;14.320;2024-01-10T04:44:41;101137.38;;;-11.62;89.14
77351;BME280;66420;50.246;14.320;2024-01-10T04:47:26;101138.81;;;-11.58;89.93
77351;BME280;66420;50.246;14.320;2024-01-10T04:50:11;101137.72;;;-11.56;90.00
77351;BME280;66420;50.246;14.320;2024-01-10T04:52:56;101138.19;;;-11.51;88.97
77351;BME280;66420;50.246;14.320;2024-01-10T04:55:41;101140.28;;;-11.65;90.11
77351;BME280;66420;50.246;14.320;2024-01-10T04:58:26;101132.38;;;-11.65;90.21
77351;BME280;66420;50.246;14.320;2024-01-10T05:01:11;101141.13;;;-11.65;89.34
77351;BME280;66420;50.246;14.320;2024-01-10T05:03:56;101131.22;;;-11.73;90.13
77351;BME280;66420;50.246;14.320;2024-01-10T05:10:07;101130.69;;;-11.67;90.87
77351;BME280;66420;50.246;14.320;2024-01-10T05:12:52;101138.88;;;-11.70;90.04
77351;BME280;66420;50.246;14.320;2024-01-10T05:15:36;101129.28;;;-11.71;90.61
77351;BME280;66420;50.246;14.320;2024-01-10T05:18:21;101135.09;;;-11.56;89.55
77351;BME280;66420;50.246;14.320;2024-01-10T05:21:06;101124.72;;;-11.69;90.16
77351;BME280;66420;50.246;14.320;2024-01-10T05:23:51;101129.22;;;-11.59;90.46
77351;BME280;66420;50.246;14.320;2024-01-10T05:26:36;101127.28;;;-11.57;89.79
77351;BME280;66420;50.246;14.320;2024-01-10T05:29:21;101132.81;;;-11.60;88.81
77351;BME280;66420;50.246;14.320;2024-01-10T05:32:08;101128.00;;;-11.55;89.17
77351;BME280;66420;50.246;14.320;2024-01-10T05:34:56;101132.81;;;-11.60;90.15
77351;BME280;66420;50.246;14.320;2024-01-10T05:37:41;101124.81;;;-11.49;89.94
77351;BME280;66420;50.246;14.320;2024-01-10T05:40:25;101131.22;;;-11.52;90.19
77351;BME280;66420;50.246;14.320;2024-01-10T05:43:12;101126.31;;;-11.56;89.33
77351;BME280;66420;50.246;14.320;2024-01-10T05:45:57;101130.31;;;-11.62;89.92
77351;BME280;66420;50.246;14.320;2024-01-10T05:48:42;101122.66;;;-11.65;90.72
77351;BME280;66420;50.246;14.320;2024-01-10T05:51:27;101123.22;;;-11.61;89.36
77351;BME280;66420;50.246;14.320;2024-01-10T05:54:12;101125.34;;;-11.55;89.63
77351;BME280;66420;50.246;14.320;2024-01-10T05:56:57;101118.13;;;-11.53;89.06
77351;BME280;66420;50.246;14.320;2024-01-10T05:59:41;101123.09;;;-11.60;89.12
77351;BME280;66420;50.246;14.320;2024-01-10T06:02:26;101124.38;;;-11.54;88.89
77351;BME280;66420;50.246;14.320;2024-01-10T06:05:12;101119.53;;;-11.49;90.34
77351;BME280;66420;50.246;14.320;2024-01-10T06:07:57;101116.22;;;-11.51;89.34
77351;BME280;66420;50.246;14.320;2024-01-10T06:10:42;101124.31;;;-11.43;89.46
77351;BME280;66420;50.246;14.320;2024-01-10T06:13:27;101123.53;;;-11.34;89.67
77351;BME280;66420;50.246;14.320;2024-01-10T06:16:11;101124.44;;;-11.45;89.23
77351;BME280;66420;50.246;14.320;2024-01-10T06:18:57;101119.47;;;-11.38;89.81
77351;BME280;66420;50.246;14.320;2024-01-10T06:21:42;101125.91;;;-11.31;89.43
77351;BME280;66420;50.246;14.320;2024-01-10T06:24:26;101130.50;;;-11.33;88.29
77351;BME280;66420;50.246;14.320;2024-01-10T06:27:11;101124.50;;;-11.35;88.53
77351;BME280;66420;50.246;14.320;2024-01-10T06:29:56;101127.69;;;-11.41;89.57
77351;BME280;66420;50.246;14.320;2024-01-10T06:32:41;101119.09;;;-11.34;89.98
77351;BME280;66420;50.246;14.320;2024-01-10T06:35:25;101126.13;;;-11.23;89.09
77351;BME280;66420;50.246;14.320;2024-01-10T06:38:09;101121.63;;;-11.32;88.42
77351;BME280;66420;50.246;14.320;2024-01-10T06:40:58;101130.16;;;-11.40;89.04
77351;BME280;66420;50.246;14.320;2024-01-10T06:43:43;101132.75;;;-11.49;89.34
77351;BME280;66420;50.246;14.320;2024-01-10T06:46:28;101130.94;;;-11.49;89.64
77351;BME280;66420;50.246;14.320;2024-01-10T06:49:14;101132.81;;;-11.40;89.29
77351;BME280;66420;50.246;14.320;2024-01-10T06:51:59;101135.38;;;-11.49;88.82
77351;BME280;66420;50.246;14.320;2024-01-10T06:54:45;101141.31;;;-11.36;89.55
77351;BME280;66420;50.246;14.320;2024-01-10T06:57:30;101133.34;;;-11.46;89.45
77351;BME280;66420;50.246;14.320;2024-01-10T07:00:15;101129.91;;;-11.57;89.96
77351;BME280;66420;50.246;14.320;2024-01-10T07:03:02;101143.69;;;-11.54;89.62
77351;BME280;66420;50.246;14.320;2024-01-10T07:05:47;101138.75;;;-11.47;88.91
77351;BME280;66420;50.246;14.320;2024-01-10T07:08:32;101138.56;;;-11.55;89.25
77351;BME280;66420;50.246;14.320;2024-01-10T07:11:17;101136.44;;;-11.61;90.83
77351;BME280;66420;50.246;14.320;2024-01-10T07:14:02;101143.13;;;-11.57;90.77
77351;BME280;66420;50.246;14.320;2024-01-10T07:16:48;101142.84;;;-11.54;89.86
77351;BME280;66420;50.246;14.320;2024-01-10T07:19:32;101144.09;;;-11.58;90.16
77351;BME280;66420;50.246;14.320;2024-01-10T07:22:17;101149.44;;;-11.49;90.05
77351;BME280;66420;50.246;14.320;2024-01-10T07:25:05;101157.31;;;-11.38;89.09
77351;BME280;66420;50.246;14.320;2024-01-10T07:27:53;101150.06;;;-11.36;90.21
77351;BME280;66420;50.246;14.320;2024-01-10T07:30:39;101152.91;;;-11.48;89.66
77351;BME280;66420;50.246;14.320;2024-01-10T07:33:24;101149.97;;;-11.34;89.23
77351;BME280;66420;50.246;14.320;2024-01-10T07:36:09;101148.72;;;-11.30;89.48
77351;BME280;66420;50.246;14.320;2024-01-10T07:38:53;101148.72;;;-11.30;88.53
77351;BME280;66420;50.246;14.320;2024-01-10T07:41:38;101153.91;;;-11.29;88.63
77351;BME280;66420;50.246;14.320;2024-01-10T07:44:23;101156.44;;;-11.17;89.27
77351;BME280;66420;50.246;14.320;2024-01-10T07:47:09;101162.13;;;-11.22;88.88
77351;BME280;66420;50.246;14.320;2024-01-10T07:49:55;101168.69;;;-11.16;88.89
77351;BME280;66420;50.246;14.320;2024-01-10T07:52:45;101166.97;;;-11.06;89.31
77351;BME280;66420;50.246;14.320;2024-01-10T07:55:33;101169.94;;;-11.00;88.19
77351;BME280;66420;50.246;14.320;2024-01-10T07:58:18;101166.44;;;-11.00;88.55
77351;BME280;66420;50.246;14.320;2024-01-10T08:01:03;101170.56;;;-11.07;88.84
77351;BME280;66420;50.246;14.320;2024-01-10T08:03:48;101160.44;;;-11.02;88.97
77351;BME280;66420;50.246;14.320;2024-01-10T08:06:32;101168.94;;;-10.99;88.42
77351;BME280;66420;50.246;14.320;2024-01-10T08:09:17;101173.03;;;-10.85;88.60
77351;BME280;66420;50.246;14.320;2024-01-10T08:12:03;101174.44;;;-10.91;89.37
77351;BME280;66420;50.246;14.320;2024-01-10T08:14:49;101172.00;;;-10.73;87.99
77351;BME280;66420;50.246;14.320;2024-01-10T08:17:35;101173.25;;;-10.67;88.57
77351;BME280;66420;50.246;14.320;2024-01-10T08:20:22;101181.00;;;-10.55;88.55
77351;BME280;66420;50.246;14.320;2024-01-10T08:23:07;101175.16;;;-10.49;87.89
77351;BME280;66420;50.246;14.320;2024-01-10T08:25:52;101173.53;;;-10.30;88.39
77351;BME280;66420;50.246;14.320;2024-01-10T08:28:37;101177.72;;;-10.28;87.17
77351;BME280;66420;50.246;14.320;2024-01-10T08:31:22;101178.00;;;-10.12;87.15
77351;BME280;66420;50.246;14.320;2024-01-10T08:34:07;101176.34;;;-10.03;87.81
77351;BME280;66420;50.246;14.320;2024-01-10T08:36:52;101180.81;;;-9.94;86.80
77351;BME280;66420;50.246;14.320;2024-01-10T08:39:37;101184.75;;;-9.89;86.81
77351;BME280;66420;50.246;14.320;2024-01-10T08:42:22;101177.91;;;-9.62;85.75
77351;BME280;66420;50.246;14.320;2024-01-10T08:45:07;101177.78;;;-9.51;87.20
77351;BME280;66420;50.246;14.320;2024-01-10T08:47:53;101178.63;;;-9.41;87.02
77351;BME280;66420;50.246;14.320;2024-01-10T08:50:39;101176.22;;;-9.25;86.92
77351;BME280;66420;50.246;14.320;2024-01-10T08:53:24;101176.38;;;-9.17;86.20
77351;BME280;66420;50.246;14.320;2024-01-10T08:56:10;101176.91;;;-9.04;86.76
77351;BME280;66420;50.246;14.320;2024-01-10T08:58:55;101178.28;;;-8.90;84.32
77351;BME280;66420;50.246;14.320;2024-01-10T09:01:41;101168.34;;;-8.88;83.45
77351;BME280;66420;50.246;14.320;2024-01-10T09:04:26;101181.56;;;-8.78;83.63
77351;BME280;66420;50.246;14.320;2024-01-10T09:07:13;101177.84;;;-8.48;82.62
77351;BME280;66420;50.246;14.320;2024-01-10T09:09:58;101174.84;;;-8.36;82.81
77351;BME280;66420;50.246;14.320;2024-01-10T09:12:43;101179.91;;;-8.25;83.69
77351;BME280;66420;50.246;14.320;2024-01-10T09:15:30;101169.81;;;-8.12;82.09
77351;BME280;66420;50.246;14.320;2024-01-10T09:18:19;101171.06;;;-7.88;81.83
77351;BME280;66420;50.246;14.320;2024-01-10T09:21:04;101167.84;;;-7.74;80.67
77351;BME280;66420;50.246;14.320;2024-01-10T09:23:50;101160.13;;;-7.68;79.59
77351;BME280;66420;50.246;14.320;2024-01-10T09:26:35;101155.88;;;-7.43;78.57
77351;BME280;66420;50.246;14.320;2024-01-10T09:29:20;101155.97;;;-7.27;77.14
77351;BME280;66420;50.246;14.320;2024-01-10T09:32:05;101159.25;;;-7.15;75.83
77351;BME280;66420;50.246;14.320;2024-01-10T09:34:50;101157.38;;;-6.97;74.52
77351;BME280;66420;50.246;14.320;2024-01-10T09:37:35;101158.63;;;-6.83;73.89
77351;BME280;66420;50.246;14.320;2024-01-10T09:40:20;101159.47;;;-6.49;73.21
77351;BME280;66420;50.246;14.320;2024-01-10T09:43:11;101160.56;;;-6.25;71.97
77351;BME280;66420;50.246;14.320;2024-01-10T09:45:58;101162.28;;;-6.08;70.92
77351;BME280;66420;50.246;14.320;2024-01-10T09:48:44;101160.59;;;-6.17;69.74
77351;BME280;66420;50.246;14.320;2024-01-10T09:51:32;101163.97;;;-5.99;71.12
77351;BME280;66420;50.246;14.320;2024-01-10T09:54:17;101155.34;;;-5.93;70.63
77351;BME280;66420;50.246;14.320;2024-01-10T09:57:04;101153.69;;;-5.70;68.96
77351;BME280;66420;50.246;14.320;2024-01-10T09:59:50;101145.16;;;-5.82;68.95
77351;BME280;66420;50.246;14.320;2024-01-10T10:02:41;101142.34;;;-5.80;69.87
77351;BME280;66420;50.246;14.320;2024-01-10T10:05:27;101135.66;;;-5.68;69.40
77351;BME280;66420;50.246;14.320;2024-01-10T10:08:13;101137.69;;;-5.70;69.02
77351;BME280;66420;50.246;14.320;2024-01-10T10:11:11;101141.00;;;-5.68;68.50
77351;BME280;66420;50.246;14.320;2024-01-10T10:13:56;101137.69;;;-5.54;68.19
77351;BME280;66420;50.246;14.320;2024-01-10T10:16:41;101137.53;;;-5.36;68.39
77351;BME280;66420;50.246;14.320;2024-01-10T10:19:26;101128.03;;;-5.14;68.63
77351;BME280;66420;50.246;14.320;2024-01-10T10:22:11;101137.34;;;-5.02;68.39
77351;BME280;66420;50.246;14.320;2024-01-10T10:24:56;101137.94;;;-4.76;68.59
77351;BME280;66420;50.246;14.320;2024-01-10T10:27:41;101140.22;;;-4.57;69.00
77351;BME280;66420;50.246;14.320;2024-01-10T10:30:26;101133.31;;;-4.35;66.89
77351;BME280;66420;50.246;14.320;2024-01-10T10:33:11;101123.97;;;-4.39;64.83
77351;BME280;66420;50.246;14.320;2024-01-10T10:35:55;101123.91;;;-4.23;67.54
77351;BME280;66420;50.246;14.320;2024-01-10T10:38:40;101117.41;;;-3.97;65.37
77351;BME280;66420;50.246;14.320;2024-01-10T10:41:25;101117.41;;;-3.67;64.47
77351;BME280;66420;50.246;14.320;2024-01-10T10:44:13;101114.34;;;-3.64;63.80
77351;BME280;66420;50.246;14.320;2024-01-10T10:47:04;101108.28;;;-3.35;62.67
77351;BME280;66420;50.246;14.320;2024-01-10T10:49:53;101109.59;;;-3.53;63.55
77351;BME280;66420;50.246;14.320;2024-01-10T10:52:42;101105.88;;;-3.30;62.72
77351;BME280;66420;50.246;14.320;2024-01-10T10:55:29;101100.25;;;-3.20;63.46
77351;BME280;66420;50.246;14.320;2024-01-10T10:58:14;101098.13;;;-3.25;62.54
77351;BME280;66420;50.246;14.320;2024-01-10T11:00:59;101107.69;;;-2.93;61.82
77351;BME280;66420;50.246;14.320;2024-01-10T11:03:45;101106.09;;;-3.17;61.00
77351;BME280;66420;50.246;14.320;2024-01-10T11:06:32;101103.91;;;-2.98;60.70
77351;BME280;66420;50.246;14.320;2024-01-10T11:09:18;101103.44;;;-3.02;61.45
77351;BME280;66420;50.246;14.320;2024-01-10T11:12:21;101100.19;;;-2.97;61.09
77351;BME280;66420;50.246;14.320;2024-01-10T11:15:23;101095.34;;;-2.94;61.02
77351;BME280;66420;50.246;14.320;2024-01-10T11:18:28;101097.91;;;-2.42;60.20
77351;BME280;66420;50.246;14.320;2024-01-10T11:21:21;101090.56;;;-2.33;61.94
77351;BME280;66420;50.246;14.320;2024-01-10T11:24:10;101097.91;;;-2.06;59.73
77351;BME280;66420;50.246;14.320;2024-01-10T11:27:15;101084.16;;;-2.03;58.37
77351;BME280;66420;50.246;14.320;2024-01-10T11:30:00;101089.25;;;-2.08;58.78
77351;BME280;66420;50.246;14.320;2024-01-10T11:32:45;101085.88;;;-1.95;59.18
77351;BME280;66420;50.246;14.320;2024-01-10T11:35:29;101082.75;;;-1.77;59.31
77351;BME280;66420;50.246;14.320;2024-01-10T11:38:17;101074.66;;;-1.84;58.68
77351;BME280;66420;50.246;14.320;2024-01-10T11:41:01;101082.03;;;-1.65;59.31
77351;BME280;66420;50.246;14.320;2024-01-10T11:43:54;101078.16;;;-1.84;58.37
77351;BME280;66420;50.246;14.320;2024-01-10T11:46:53;101077.78;;;-2.02;60.05
77351;BME280;66420;50.246;14.320;2024-01-10T11:49:53;101074.44;;;-1.83;59.95
77351;BME280;66420;50.246;14.320;2024-01-10T11:52:38;101066.88;;;-1.79;58.87
77351;BME280;66420;50.246;14.320;2024-01-10T11:55:49;101067.03;;;-1.81;58.33
77351;BME280;66420;50.246;14.320;2024-01-10T11:58:52;101064.88;;;-1.70;58.49
77351;BME280;66420;50.246;14.320;2024-01-10T12:01:38;101066.13;;;-1.88;59.49
77351;BME280;66420;50.246;14.320;2024-01-10T12:04:24;101060.75;;;-1.88;59.67
77351;BME280;66420;50.246;14.320;2024-01-10T12:07:16;101058.28;;;-1.47;58.16
77351;BME280;66420;50.246;14.320;2024-01-10T12:10:00;101053.41;;;-1.09;59.40
77351;BME280;66420;50.246;14.320;2024-01-10T12:12:45;101055.78;;;-0.93;58.76
77351;BME280;66420;50.246;14.320;2024-01-10T12:15:30;101048.84;;;-1.36;57.43
77351;BME280;66420;50.246;14.320;2024-01-10T12:18:15;101045.56;;;-1.38;58.42
77351;BME280;66420;50.246;14.320;2024-01-10T12:20:59;101049.88;;;-1.37;58.22
77351;BME280;66420;50.246;14.320;2024-01-10T12:23:44;101053.63;;;-1.59;58.67
77351;BME280;66420;50.246;14.320;2024-01-10T12:26:29;101048.81;;;-1.15;60.27
77351;BME280;66420;50.246;14.320;2024-01-10T12:29:17;101047.78;;;-1.14;59.56
77351;BME280;66420;50.246;14.320;2024-01-10T12:32:03;101035.41;;;-1.15;59.71
77351;BME280;66420;50.246;14.320;2024-01-10T12:34:48;101031.56;;;-1.27;59.68
77351;BME280;66420;50.246;14.320;2024-01-10T12:37:33;101024.25;;;-1.12;59.69
77351;BME280;66420;50.246;14.320;2024-01-10T12:40:17;101024.88;;;-0.75;59.20
77351;BME280;66420;50.246;14.320;2024-01-10T12:43:05;101029.22;;;-0.74;57.35
77351;BME280;66420;50.246;14.320;2024-01-10T12:46:04;101026.91;;;-0.77;57.55
77351;BME280;66420;50.246;14.320;2024-01-10T12:49:01;101026.19;;;-0.58;58.00
77351;BME280;66420;50.246;14.320;2024-01-10T12:51:46;101032.66;;;-0.46;59.08
77351;BME280;66420;50.246;14.320;2024-01-10T12:54:31;101022.28;;;-0.49;57.53
77351;BME280;66420;50.246;14.320;2024-01-10T12:57:16;101022.47;;;-0.57;57.34
77351;BME280;66420;50.246;14.320;2024-01-10T13:00:01;101018.81;;;-0.43;58.01
77351;BME280;66420;50.246;14.320;2024-01-10T13:02:50;101021.72;;;-0.31;58.70
77351;BME280;66420;50.246;14.320;2024-01-10T13:05:35;101013.47;;;-0.30;58.40
77351;BME280;66420;50.246;14.320;2024-01-10T13:08:19;101012.75;;;-0.58;58.63
77351;BME280;66420;50.246;14.320;2024-01-10T13:11:04;101013.03;;;-0.40;58.75
77351;BME280;66420;50.246;14.320;2024-01-10T13:13:53;101009.34;;;-0.26;58.79
77351;BME280;66420;50.246;14.320;2024-01-10T13:16:38;101014.72;;;-0.26;58.83
77351;BME280;66420;50.246;14.320;2024-01-10T13:19:23;101007.50;;;-0.25;58.42
77351;BME280;66420;50.246;14.320;2024-01-10T13:22:07;101001.53;;;-0.08;58.72
77351;BME280;66420;50.246;14.320;2024-01-10T13:24:52;101000.53;;;0.07;58.24
77351;BME280;66420;50.246;14.320;2024-01-10T13:27:37;100999.47;;;-0.06;57.51
77351;BME280;66420;50.246;14.320;2024-01-10T13:30:22;101001.56;;;0.12;57.50
77351;BME280;66420;50.246;14.320;2024-01-10T13:33:07;100995.78;;;0.09;58.16
77351;BME280;66420;50.246;14.320;2024-01-10T13:35:53;100999.88;;;-0.15;58.18
77351;BME280;66420;50.246;14.320;2024-01-10T13:38:38;101005.47;;;-0.04;58.66
77351;BME280;66420;50.246;14.320;2024-01-10T13:41:23;100999.84;;;-0.09;58.54
77351;BME280;66420;50.246;14.320;2024-01-10T13:44:08;100996.94;;;-0.14;59.72
77351;BME280;66420;50.246;14.320;2024-01-10T13:46:55;101008.34;;;-0.12;59.88
77351;BME280;66420;50.246;14.320;2024-01-10T13:49:40;101009.31;;;-0.39;58.67
77351;BME280;66420;50.246;14.320;2024-01-10T13:52:26;101000.13;;;-0.58;60.48
77351;BME280;66420;50.246;14.320;2024-01-10T13:55:11;101006.06;;;-0.75;59.25
77351;BME280;66420;50.246;14.320;2024-01-10T13:57:56;101002.28;;;-1.22;60.46
77351;BME280;66420;50.246;14.320;2024-01-10T14:00:41;101005.88;;;-1.08;61.60
77351;BME280;66420;50.246;14.320;2024-01-10T14:03:25;100997.69;;;-1.28;62.18
77351;BME280;66420;50.246;14.320;2024-01-10T14:06:11;101004.13;;;-1.22;62.68
77351;BME280;66420;50.246;14.320;2024-01-10T14:08:56;100998.47;;;-1.34;61.64
77351;BME280;66420;50.246;14.320;2024-01-10T14:11:42;100995.50;;;-1.46;62.93